• Join FlightAware (Why Join?)
  • Login
  • US Flag 
11:26PM EDT


 

Airport Tracker/Info


-or-


 

Live Flight TrackerFlight Track Log ✈ GJS3710 ✈ 14-May-2013 ✈ KSAT - KDEN

Flight Track Log - Related Links

Times and Time Zones

All times are in EDT time to prevent confusion due to time zone crossing. See the GJS3710 flight status page for this flight to view local times or setup timezone preferences in your user account.

Time Position Orientation Groundspeed Altitude Reporting Facility
EDT Latitude Longitude Course Direction KTS MPH feet Rate Location/Type
03:02PM 29.5200 -98.4569 119° Southeast 161 185 1,700  Level Houston Center
03:03PM 29.4897 -98.3942 119° Southeast 202 232 4,100 1,980 Climbing Houston Center
03:04PM 29.5408 -98.3378 44° Northeast 279 321 6,100 2,460 Climbing Houston Center
03:05PM 29.6272 -98.3303 North 294 338 9,200 2,160 Climbing Houston Center
03:06PM 29.7144 -98.3408 354° North 320 368 10,700 1,200 Climbing Houston Center
03:07PM 29.8300 -98.3564 353° North 388 447 11,800 1,500 Climbing Houston Center
03:09PM 29.9389 -98.3883 346° North 405 466 13,800 1,920 Climbing Houston Center
03:10PM 30.0492 -98.4464 336° Northwest 423 487 15,800 1,680 Climbing Houston Center
03:11PM 30.1369 -98.5283 321° Northwest 415 478 17,300 1,260 Climbing Houston Center
03:12PM 30.2139 -98.6442 308° West 424 488 18,500 1,320 Climbing Houston Center
03:13PM 30.2858 -98.7531 307° West 427 491 20,100 1,260 Climbing Houston Center
03:14PM 30.3594 -98.8669 307° West 435 501 21,200 1,020 Climbing Houston Center
03:15PM 30.4356 -98.9831 307° West 444 511 22,300 1,020 Climbing Houston Center
03:16PM 30.5108 -99.1008 307° West 446 513 23,400 960 Climbing Houston Center
03:17PM 30.5911 -99.2219 308° West 455 524 24,400 960 Climbing Houston Center
03:18PM 30.6681 -99.3394 307° West 458 527 25,400 960 Climbing Houston Center
03:19PM 30.7447 -99.4567 307° West 458 527 26,400 1,020 Climbing Houston Center
03:20PM 30.8317 -99.5944 306° West 437 503 27,600 720 Climbing Houston Center
03:21PM 30.9064 -99.7078 308° West 442 509 28,000 180 Climbing Houston Center
03:22PM 30.9778 -99.8214 306° West 431 496 28,000  Level Houston Center
03:23PM 31.0503 -99.9372 306° West 438 504 28,000  Level Houston Center
03:24PM 31.1250 -100.0581 306° West 474 545 28,000  Level Houston Center
03:25PM 31.2144 -100.1981 307° West 456 525 28,000 60 Level Houston Center
03:26PM 31.2881 -100.3139 307° West 448 516 28,200 600 Climbing Houston Center
03:27PM 31.3831 -100.4067 320° Northwest 461 531 29,300 960 Climbing Houston Center
03:28PM 31.5189 -100.3781 10° North 508 585 30,300 960 Climbing Houston Center
03:29PM 31.6564 -100.3464 11° North 520 598 31,300 900 Climbing Houston Center
03:30PM 31.7958 -100.3953 343° North 465 535 32,200 780 Climbing Fort Worth Center
03:31PM 31.9242 -100.4436 342° North 471 542 32,900 660 Climbing Fort Worth Center
03:32PM 32.0564 -100.4944 342° North 478 550 33,600 660 Climbing Fort Worth Center
03:33PM 32.1847 -100.5381 344° North 478 550 34,300 660 Climbing Fort Worth Center
03:34PM 32.3172 -100.5869 343° North 483 556 35,000 660 Climbing Fort Worth Center
03:35PM 32.4453 -100.6358 342° North 483 556 35,700 600 Climbing Fort Worth Center
03:36PM 32.5756 -100.6872 342° North 483 556 36,300 540 Climbing Fort Worth Center
03:37PM 32.7183 -100.7394 343° North 483 556 36,800 480 Climbing Fort Worth Center
03:38PM 32.8506 -100.7864 343° North 483 556 37,300 540 Climbing Fort Worth Center
03:39PM 32.9786 -100.8333 343° North 483 556 37,900 300 Climbing Fort Worth Center
03:40PM 33.1067 -100.8828 342° North 478 550 38,000  Climbing Fort Worth Center
03:41PM 33.2389 -100.9303 343° North 483 556 38,000  Level Fort Worth Center
03:42PM 33.3711 -100.9778 343° North 490 564 38,000  Level Fort Worth Center
03:43PM 33.5056 -101.0281 343° North 496 571 38,000  Level Fort Worth Center
03:44PM 33.6333 -101.0758 343° North 496 571 38,000  Level Fort Worth Center
03:45PM 33.7675 -101.1264 343° North 496 571 38,000  Level Fort Worth Center
03:46PM 33.8994 -101.1794 342° North 496 571 38,000  Level Fort Worth Center
03:47PM 34.0294 -101.2303 342° North 490 564 38,000  Level Fort Worth Center
03:48PM 34.1594 -101.2786 343° North 499 574 38,000  Level Fort Worth Center
03:50PM 34.4208 -101.3761 343° North 497 572 38,000  Level Albuquerque Center
03:51PM 34.5525 -101.4278 342° North 498 573 38,000  Level Albuquerque Center
03:52PM 34.6836 -101.4789 342° North 497 572 38,000  Level Albuquerque Center
03:53PM 34.8131 -101.5364 340° North 494 568 38,000  Level Albuquerque Center
03:54PM 34.9417 -101.5942 340° North 492 566 38,000  Level Albuquerque Center
03:55PM 35.0844 -101.6575 340° North 501 577 38,000  Level Albuquerque Center
03:56PM 35.2136 -101.7153 340° North 499 574 38,000  Level Albuquerque Center
03:57PM 35.3414 -101.7725 340° North 488 562 38,000  Level Albuquerque Center
03:59PM 35.4928 -101.8411 340° North 491 565 38,000  Level Albuquerque Center
04:00PM 35.6233 -101.9011 340° North 490 564 38,000  Level Albuquerque Center
04:01PM 35.7503 -101.9589 340° North 489 563 38,000  Level Albuquerque Center
04:02PM 35.8794 -102.0167 340° North 491 565 38,000  Level Albuquerque Center
04:03PM 36.0078 -102.0758 340° North 492 566 38,000  Level Albuquerque Center
04:04PM 36.1358 -102.1344 340° North 491 565 38,000  Level Albuquerque Center
04:05PM 36.2633 -102.1933 340° North 490 564 38,000 -60 Level Albuquerque Center
04:06PM 36.3908 -102.2517 340° North 489 563 37,900 -480 Descending Albuquerque Center
04:07PM 36.5408 -102.3206 340° North 482 555 37,100 -780 Descending Albuquerque Center
04:08PM 36.6636 -102.3769 340° North 473 544 36,400 -540 Descending Albuquerque Center
04:09PM 36.7850 -102.4347 339° North 469 540 36,000 -240 Descending Albuquerque Center
04:10PM 36.9100 -102.4919 340° North 471 542 36,000  Level Albuquerque Center
04:11PM 37.0428 -102.5556 339° North 481 554 36,000  Level Albuquerque Center
04:12PM 37.1667 -102.6128 340° North 491 565 36,000  Level Albuquerque Center
04:13PM 37.3103 -102.6811 339° North 495 570 36,000  Level Albuquerque Center
04:14PM 37.4289 -102.7372 339° North 484 557 36,000  Level Albuquerque Center
04:15PM 37.5678 -102.7953 342° North 474 545 36,000  Level Albuquerque Center
04:16PM 37.6875 -102.8331 346° North 467 537 36,000  Level Albuquerque Center
04:17PM 37.8194 -102.9053 337° Northwest 467 537 36,000  Level Albuquerque Center
04:18PM 37.9639 -103.0225 327° Northwest 479 551 36,000  Level Denver Center
04:19PM 38.0658 -103.1075 327° Northwest 484 557 36,000  Level Denver Center
04:20PM 38.1803 -103.2025 327° Northwest 486 559 36,000  Level Denver Center
04:21PM 38.3061 -103.3081 327° Northwest 486 559 36,000  Level Denver Center
04:22PM 38.4461 -103.3350 351° North 478 550 36,000  Level Denver Center
04:23PM 38.5658 -103.2883 17° North 469 540 36,000  Level Denver Center
04:24PM 38.6867 -103.2211 23° Northeast 473 544 36,000  Level Denver Center
04:25PM 38.8222 -103.1483 23° Northeast 472 543 36,000  Level Denver Center
04:27PM 38.9386 -103.0856 23° Northeast 473 544 36,000  Level Denver Center
04:28PM 39.0678 -103.0169 22° Northeast 448 516 36,000  Level Denver Center
04:29PM 39.1817 -102.9972 North 440 506 36,000 -240 Level Denver Center
04:30PM 39.2903 -103.0492 340° North 438 504 35,600 -1,080 Descending Denver Center
04:31PM 39.3792 -103.1822 311° West 444 511 33,900 -1,860 Descending Denver Center
04:32PM 39.4083 -103.3283 285° West 445 512 31,800 -3,240 Descending Denver Center
04:33PM 39.4042 -103.5022 268° West 433 498 27,300 -3,960 Descending Denver Center
04:34PM 39.4028 -103.6425 269° West 411 473 23,700 -3,600 Descending Denver Center
04:35PM 39.4008 -103.7928 269° West 390 449 20,000 -3,120 Descending Denver Center
04:36PM 39.4067 -103.9189 273° West 353 406 17,300 -2,880 Descending Denver Center
04:37PM 39.4214 -104.0406 279° West 324 373 14,100 -2,100 Descending Denver Center
04:38PM 39.4342 -104.1553 278° West 323 372 13,000 -540 Descending Denver Center
04:39PM 39.4456 -104.2672 278° West 317 365 13,100 -60 Climbing Denver Center
04:40PM 39.4644 -104.3769 283° West 294 338 12,900 -1,020 Descending Denver Center
04:41PM 39.4878 -104.4722 288° West 281 323 11,100 -1,380 Descending Denver Center
04:42PM 39.5225 -104.5575 298° West 280 322 10,100 -660 Descending Denver Center
04:43PM 39.5917 -104.5825 344° North 240 276 9,800 -660 Descending Denver Center
04:44PM 39.6522 -104.6244 332° Northwest 245 282 8,800 -1,020 Descending Denver Center
04:45PM 39.7128 -104.6625 334° Northwest 225 259 7,800 -1,080 Descending Denver Center
04:46PM 39.7594 -104.6622 360° North 173 199 6,700 -900 Descending Denver Center
04:47PM 39.8044 -104.6611 North 163 188 6,000 -660 Descending Denver Center
04:48PM 39.8458 -104.6592 North 141 162 5,400 -600 Descending Denver Center
04:50PM 39.8500 -104.6667 North  Level FlightAware Approximate
04:57PM 39.8617 -104.6732 North  Level Estimated
04:58PM 39.8617 -104.6732 North  Level Estimated